createdAt,value
2023-03-27T00:01:11.948Z,4.56
2023-03-27T00:03:40.174Z,4.55
2023-03-27T00:06:09.205Z,4.56
2023-03-27T00:08:36.704Z,4.52
2023-03-27T00:11:03.809Z,4.44
2023-03-27T00:13:31.548Z,4.38
2023-03-27T00:15:59.791Z,4.39
2023-03-27T00:18:28.279Z,4.41
2023-03-27T00:20:58.758Z,4.43
2023-03-27T00:23:26.004Z,4.45
2023-03-27T00:25:54.318Z,4.45
2023-03-27T00:28:20.927Z,4.48
2023-03-27T00:30:48.309Z,4.50
2023-03-27T00:33:15.382Z,4.51
2023-03-27T00:35:49.877Z,4.54
2023-03-27T00:38:16.722Z,4.56
2023-03-27T00:40:45.380Z,4.59
2023-03-27T00:43:34.577Z,4.60
2023-03-27T00:46:03.849Z,4.61
2023-03-27T00:48:34.582Z,4.61
2023-03-27T00:51:01.610Z,4.62
2023-03-27T00:53:30.106Z,4.66
2023-03-27T00:56:01.509Z,4.66
2023-03-27T00:58:42.151Z,4.64
2023-03-27T01:01:13.030Z,4.58
2023-03-27T01:03:42.215Z,4.57
2023-03-27T01:06:13.971Z,4.60
2023-03-27T01:08:43.767Z,4.60
2023-03-27T01:11:34.121Z,4.58
2023-03-27T01:14:08.238Z,4.54
2023-03-27T01:16:59.891Z,4.49
2023-03-27T01:19:41.903Z,4.43
2023-03-27T01:22:46.120Z,4.44
2023-03-27T01:25:54.395Z,4.44
2023-03-27T01:28:39.116Z,4.49
2023-03-27T01:31:25.519Z,4.47
2023-03-27T01:34:04.271Z,4.40
2023-03-27T01:36:51.982Z,4.35
2023-03-27T01:39:39.241Z,4.27
2023-03-27T01:42:18.445Z,4.23
2023-03-27T01:48:02.489Z,4.17
2023-03-27T01:50:51.712Z,4.15
2023-03-27T01:53:39.886Z,4.13
2023-03-27T01:56:26.115Z,4.16
2023-03-27T01:59:04.116Z,4.26
2023-03-27T02:01:36.852Z,4.27
2023-03-27T02:04:05.737Z,4.34
2023-03-27T02:06:41.802Z,4.40
2023-03-27T02:09:19.050Z,4.44
2023-03-27T02:11:58.781Z,4.47
2023-03-27T02:14:30.740Z,4.48
2023-03-27T02:17:07.388Z,4.49
2023-03-27T02:19:38.079Z,4.50
2023-03-27T02:22:04.656Z,4.47
2023-03-27T02:24:31.208Z,4.42
2023-03-27T02:27:13.306Z,4.42
2023-03-27T02:29:44.553Z,4.38
2023-03-27T02:32:38.147Z,4.35
2023-03-27T02:37:57.949Z,4.25
2023-03-27T02:40:27.804Z,4.38
2023-03-27T02:43:13.355Z,4.50
2023-03-27T02:46:00.007Z,4.65
2023-03-27T02:48:49.753Z,4.60
2023-03-27T02:51:19.210Z,4.38
2023-03-27T02:53:51.399Z,4.19
2023-03-27T02:56:22.313Z,3.99
2023-03-27T02:58:57.526Z,3.79
2023-03-27T03:01:26.832Z,3.51
2023-03-27T03:03:58.957Z,3.25
2023-03-27T03:06:31.744Z,2.94
2023-03-27T03:09:05.163Z,2.70
2023-03-27T03:11:35.077Z,2.59
2023-03-27T03:14:01.654Z,2.51
2023-03-27T03:16:29.575Z,2.51
2023-03-27T03:18:56.821Z,2.45
2023-03-27T03:21:23.483Z,2.45
2023-03-27T03:23:58.172Z,2.55
2023-03-27T03:26:27.148Z,2.64
2023-03-27T03:28:59.742Z,2.66
2023-03-27T03:31:28.093Z,2.62
2023-03-27T03:33:54.589Z,2.68
2023-03-27T03:36:21.144Z,2.69
2023-03-27T03:38:48.022Z,2.76
2023-03-27T03:41:14.680Z,2.83
2023-03-27T03:43:41.349Z,2.89
2023-03-27T03:46:07.918Z,2.87
2023-03-27T03:48:34.524Z,2.83
2023-03-27T03:51:01.124Z,2.77
2023-03-27T03:53:27.697Z,2.88
2023-03-27T03:55:54.300Z,3.04
2023-03-27T03:58:20.871Z,3.12
2023-03-27T04:01:02.897Z,3.07
2023-03-27T04:03:32.388Z,3.04
2023-03-27T04:06:05.515Z,3.03
2023-03-27T04:08:32.992Z,2.93
2023-03-27T04:10:59.618Z,2.91
2023-03-27T04:13:26.602Z,2.80
2023-03-27T04:15:53.227Z,2.73
2023-03-27T04:18:19.908Z,2.66
2023-03-27T04:20:49.791Z,2.58
2023-03-27T04:23:20.214Z,2.42
2023-03-27T04:25:47.170Z,2.32
2023-03-27T04:28:17.456Z,2.28
2023-03-27T04:30:45.039Z,2.20
2023-03-27T04:33:18.821Z,2.21
2023-03-27T04:35:46.846Z,2.34
2023-03-27T04:38:36.746Z,2.34
2023-03-27T04:41:03.806Z,2.37
2023-03-27T04:43:30.818Z,2.36
2023-03-27T04:45:57.390Z,2.36
2023-03-27T04:48:23.955Z,2.34
2023-03-27T04:50:50.491Z,2.30
2023-03-27T04:53:18.260Z,2.30
2023-03-27T04:55:45.874Z,2.25
2023-03-27T04:58:13.026Z,2.23
2023-03-27T05:00:40.366Z,2.16
2023-03-27T05:03:06.991Z,2.20
2023-03-27T05:05:34.779Z,2.22
2023-03-27T05:08:01.621Z,2.14
2023-03-27T05:10:28.151Z,2.16
2023-03-27T05:12:57.162Z,2.15
2023-03-27T05:15:25.007Z,2.09
2023-03-27T05:17:54.612Z,2.04
2023-03-27T05:20:22.225Z,2.05
2023-03-27T05:22:49.633Z,1.97
2023-03-27T05:25:16.290Z,1.83
2023-03-27T05:27:50.536Z,1.83
2023-03-27T05:30:21.105Z,1.70
2023-03-27T05:32:49.741Z,1.67
2023-03-27T05:35:18.030Z,1.61
2023-03-27T05:37:49.350Z,1.61
2023-03-27T05:40:17.398Z,1.72
2023-03-27T05:42:45.430Z,1.90
2023-03-27T05:45:13.754Z,2.01
2023-03-27T05:47:52.621Z,2.19
2023-03-27T05:50:21.694Z,2.33
2023-03-27T05:52:55.837Z,2.53
2023-03-27T05:55:22.716Z,2.76
2023-03-27T05:57:49.223Z,2.92
2023-03-27T06:00:16.598Z,3.05
2023-03-27T06:02:45.011Z,3.20
2023-03-27T06:05:16.738Z,3.28
2023-03-27T06:07:43.846Z,3.46
2023-03-27T06:10:13.877Z,3.66
2023-03-27T06:12:41.876Z,3.78
2023-03-27T06:15:10.296Z,3.84
2023-03-27T06:17:39.469Z,3.81
2023-03-27T06:20:15.584Z,3.84
2023-03-27T06:22:47.301Z,3.90
2023-03-27T06:25:14.879Z,3.97
2023-03-27T06:27:45.665Z,4.11
2023-03-27T06:30:14.588Z,4.24
2023-03-27T06:32:49.295Z,4.49
2023-03-27T06:35:16.508Z,4.74
2023-03-27T06:37:50.741Z,4.95
2023-03-27T06:40:23.809Z,5.07
2023-03-27T06:43:09.397Z,5.10
2023-03-27T06:45:43.036Z,5.02
2023-03-27T06:48:16.955Z,4.94
2023-03-27T06:50:48.443Z,4.87
2023-03-27T06:53:26.629Z,4.85
2023-03-27T06:55:54.923Z,4.74
2023-03-27T06:58:21.927Z,4.73
2023-03-27T07:00:49.799Z,4.70
2023-03-27T07:03:18.053Z,4.80
2023-03-27T07:05:45.599Z,4.87
2023-03-27T07:10:46.987Z,4.39
2023-03-27T07:13:18.109Z,4.12
2023-03-27T07:15:44.624Z,3.66
2023-03-27T07:18:11.525Z,3.47
2023-03-27T07:20:39.334Z,3.38
2023-03-27T07:23:05.985Z,3.33
2023-03-27T07:25:37.495Z,3.33
2023-03-27T07:28:07.046Z,3.32
2023-03-27T07:30:34.388Z,3.39
2023-03-27T07:33:01.534Z,3.43
2023-03-27T07:35:28.163Z,3.46
2023-03-27T07:37:55.637Z,3.50
2023-03-27T07:40:33.031Z,3.55
2023-03-27T07:43:09.320Z,3.58
2023-03-27T07:45:36.638Z,3.89
2023-03-27T07:48:12.198Z,4.24
2023-03-27T07:50:39.102Z,4.60
2023-03-27T07:53:08.769Z,5.38
2023-03-27T07:55:38.046Z,6.31
2023-03-27T07:58:06.880Z,7.15
2023-03-27T08:00:35.946Z,8.13
2023-03-27T08:03:07.615Z,9.15
2023-03-27T08:05:34.723Z,9.25
2023-03-27T08:08:01.447Z,8.35
2023-03-27T08:10:28.192Z,8.74
2023-03-27T08:12:54.716Z,9.85
2023-03-27T08:15:21.200Z,10.25
2023-03-27T08:17:47.812Z,9.52
2023-03-27T08:20:15.362Z,8.65
2023-03-27T08:22:41.954Z,8.94
2023-03-27T08:25:10.521Z,9.16
2023-03-27T08:27:37.081Z,9.30
2023-03-27T08:30:05.159Z,8.98
2023-03-27T08:32:31.901Z,8.46
2023-03-27T08:34:58.647Z,8.89
2023-03-27T08:37:25.546Z,9.33
2023-03-27T08:39:52.107Z,9.48
2023-03-27T08:42:22.504Z,9.71
2023-03-27T08:44:54.970Z,10.18
2023-03-27T08:47:31.928Z,10.51
2023-03-27T08:50:02.576Z,10.49
2023-03-27T08:52:32.048Z,10.50
2023-03-27T08:55:07.979Z,10.76
2023-03-27T08:57:34.924Z,10.84
2023-03-27T09:00:02.232Z,10.45
2023-03-27T09:02:51.473Z,10.74
2023-03-27T09:05:32.790Z,9.75
2023-03-27T09:08:19.512Z,10.33
2023-03-27T09:11:03.235Z,10.40
2023-03-27T09:14:08.748Z,10.82
2023-03-27T09:16:49.436Z,9.74
2023-03-27T09:19:31.579Z,9.10
2023-03-27T09:22:04.391Z,8.54
2023-03-27T09:24:40.560Z,8.05
2023-03-27T09:27:34.784Z,9.31
2023-03-27T09:30:18.619Z,10.91
2023-03-27T09:32:48.626Z,10.61
2023-03-27T09:35:17.103Z,11.11
2023-03-27T09:37:44.276Z,11.51
2023-03-27T09:40:30.839Z,11.57
2023-03-27T09:43:08.625Z,10.45
2023-03-27T09:45:40.669Z,9.71
2023-03-27T09:48:16.269Z,10.97
2023-03-27T09:50:47.112Z,10.85
2023-03-27T09:53:21.060Z,10.33
2023-03-27T09:56:13.003Z,8.75
2023-03-27T09:58:47.315Z,6.44
2023-03-27T10:01:19.737Z,5.54
2023-03-27T10:03:50.088Z,5.10
2023-03-27T10:06:41.262Z,5.02
2023-03-27T10:09:27.724Z,5.15
2023-03-27T10:12:08.227Z,5.27
2023-03-27T10:14:43.589Z,5.88
2023-03-27T10:17:21.787Z,6.89
2023-03-27T10:19:52.374Z,8.03
2023-03-27T10:22:27.847Z,8.90
2023-03-27T10:24:58.984Z,8.96
2023-03-27T10:27:29.999Z,9.18
2023-03-27T10:29:57.647Z,9.83
2023-03-27T10:32:45.997Z,10.01
2023-03-27T10:35:48.360Z,9.46
2023-03-27T10:38:17.635Z,9.10
2023-03-27T10:40:49.996Z,8.84
2023-03-27T10:43:24.430Z,8.62
2023-03-27T10:45:58.241Z,9.03
2023-03-27T10:48:50.248Z,9.85
2023-03-27T10:52:13.974Z,10.94
2023-03-27T10:55:07.370Z,10.49
2023-03-27T10:57:34.694Z,10.83
2023-03-27T11:00:20.737Z,11.07
2023-03-27T11:03:18.681Z,12.12
2023-03-27T11:05:48.252Z,10.84
2023-03-27T11:08:53.172Z,9.68
2023-03-27T11:11:27.597Z,8.91
2023-03-27T11:13:59.614Z,8.23
2023-03-27T11:16:39.940Z,8.15
2023-03-27T11:19:12.400Z,8.23
2023-03-27T11:21:47.600Z,8.14
2023-03-27T11:24:32.395Z,8.04
2023-03-27T11:27:09.961Z,7.88
2023-03-27T11:29:44.233Z,8.44
2023-03-27T11:32:29.642Z,9.38
2023-03-27T11:35:06.930Z,10.90
2023-03-27T11:37:57.214Z,10.34
2023-03-27T11:40:37.795Z,9.70
2023-03-27T11:43:04.538Z,10.71
2023-03-27T11:45:46.565Z,10.92
2023-03-27T11:48:32.840Z,11.65
2023-03-27T11:51:19.507Z,11.86
2023-03-27T11:54:09.483Z,11.63
2023-03-27T11:56:54.511Z,11.46
2023-03-27T11:59:46.689Z,11.30
2023-03-27T12:02:34.624Z,11.76
2023-03-27T12:05:17.068Z,11.99
2023-03-27T12:08:21.727Z,10.98
2023-03-27T12:10:52.714Z,10.01
2023-03-27T12:13:34.936Z,9.43
2023-03-27T12:16:26.678Z,8.92
2023-03-27T12:19:08.076Z,8.95
2023-03-27T12:21:46.636Z,10.47
2023-03-27T12:24:27.511Z,11.52
2023-03-27T12:27:11.125Z,12.21
2023-03-27T12:29:43.513Z,12.49
2023-03-27T12:32:24.999Z,13.63
2023-03-27T12:34:56.534Z,13.74
2023-03-27T12:37:27.443Z,12.58
2023-03-27T12:39:59.150Z,13.55
2023-03-27T12:42:48.851Z,13.55
2023-03-27T12:45:22.556Z,13.07
2023-03-27T12:48:10.935Z,13.11
2023-03-27T12:50:45.576Z,11.30
2023-03-27T12:53:27.173Z,9.80
2023-03-27T12:56:16.411Z,8.91
2023-03-27T12:58:45.837Z,8.24
2023-03-27T13:01:45.546Z,8.03
2023-03-27T13:04:34.277Z,7.75
2023-03-27T13:07:17.223Z,8.66
2023-03-27T13:10:13.643Z,9.90
2023-03-27T13:12:52.013Z,9.86
2023-03-27T13:15:38.738Z,10.55
2023-03-27T13:18:32.698Z,11.01
2023-03-27T13:21:37.688Z,11.06
2023-03-27T13:24:22.072Z,10.09
2023-03-27T13:27:06.817Z,10.52
2023-03-27T13:29:35.084Z,10.38
2023-03-27T13:32:20.380Z,10.59
2023-03-27T13:35:23.244Z,9.79
2023-03-27T13:37:49.773Z,10.42
2023-03-27T13:40:26.716Z,10.08
2023-03-27T13:43:09.372Z,8.90
2023-03-27T13:45:47.199Z,9.03
2023-03-27T13:48:36.605Z,9.69
2023-03-27T13:51:31.196Z,9.15
2023-03-27T13:53:57.674Z,9.31
2023-03-27T13:57:00.687Z,9.67
2023-03-27T13:59:41.850Z,9.15
2023-03-27T14:02:14.623Z,9.58
2023-03-27T14:04:57.535Z,9.91
2023-03-27T14:07:58.310Z,9.81
2023-03-27T14:10:50.456Z,8.82
2023-03-27T14:13:42.131Z,9.22
2023-03-27T14:16:29.450Z,9.11
2023-03-27T14:19:31.906Z,8.30
2023-03-27T14:22:00.970Z,7.28
2023-03-27T14:24:38.238Z,6.41
2023-03-27T14:27:10.127Z,5.83
2023-03-27T14:29:36.652Z,5.50
2023-03-27T14:32:12.280Z,5.50
2023-03-27T14:37:39.227Z,5.89
2023-03-27T14:40:20.545Z,6.80
2023-03-27T14:42:49.644Z,7.25
2023-03-27T14:45:23.358Z,7.44
2023-03-27T14:47:53.155Z,7.46
2023-03-27T14:50:19.997Z,7.02
2023-03-27T14:52:51.681Z,6.91
2023-03-27T14:55:18.775Z,7.03
2023-03-27T14:57:49.444Z,7.28
2023-03-27T15:00:20.889Z,7.55
2023-03-27T15:02:49.428Z,7.60
2023-03-27T15:05:18.236Z,7.64
2023-03-27T15:07:49.349Z,7.71
2023-03-27T15:10:22.497Z,7.96
2023-03-27T15:12:49.511Z,8.16
2023-03-27T15:15:23.201Z,7.94
2023-03-27T15:17:54.821Z,7.51
2023-03-27T15:20:30.259Z,7.59
2023-03-27T15:23:02.965Z,7.59
2023-03-27T15:25:42.756Z,7.64
2023-03-27T15:28:24.403Z,7.69
2023-03-27T15:30:54.681Z,7.52
2023-03-27T15:33:42.774Z,7.29
2023-03-27T15:36:22.898Z,7.03
2023-03-27T15:38:51.039Z,6.71
2023-03-27T15:41:17.804Z,6.51
2023-03-27T15:43:44.541Z,6.35
2023-03-27T15:46:19.884Z,6.54
2023-03-27T15:48:51.389Z,6.89
2023-03-27T15:51:21.098Z,7.03
2023-03-27T15:53:50.988Z,7.16
2023-03-27T15:56:27.298Z,7.49
2023-03-27T15:59:04.678Z,7.88
2023-03-27T16:01:54.137Z,8.02
2023-03-27T16:04:25.773Z,7.94
2023-03-27T16:07:07.264Z,7.94
2023-03-27T16:09:45.607Z,7.34
2023-03-27T16:12:13.143Z,7.02
2023-03-27T16:14:52.808Z,6.75
2023-03-27T16:17:31.372Z,6.67
2023-03-27T16:19:57.835Z,6.83
2023-03-27T16:22:31.404Z,7.00
2023-03-27T16:24:59.817Z,7.17
2023-03-27T16:27:38.628Z,7.05
2023-03-27T16:30:08.020Z,6.97
2023-03-27T16:32:35.545Z,6.97
2023-03-27T16:35:02.333Z,6.96
2023-03-27T16:37:29.296Z,6.86
2023-03-27T16:39:56.153Z,6.74
2023-03-27T16:42:26.255Z,6.66
2023-03-27T16:44:53.372Z,6.56
2023-03-27T16:47:20.599Z,6.50
2023-03-27T16:49:56.245Z,6.45
2023-03-27T16:52:34.319Z,6.35
2023-03-27T16:55:01.967Z,6.39
2023-03-27T16:57:28.635Z,6.36
2023-03-27T16:59:55.675Z,6.39
2023-03-27T17:02:22.195Z,6.39
2023-03-27T17:04:48.773Z,6.46
2023-03-27T17:07:15.938Z,6.43
2023-03-27T17:09:44.016Z,6.48
2023-03-27T17:12:11.621Z,6.53
2023-03-27T17:14:39.483Z,6.47
2023-03-27T17:17:06.515Z,6.44
2023-03-27T17:19:33.191Z,6.31
2023-03-27T17:22:00.213Z,6.19
2023-03-27T17:24:26.960Z,6.13
2023-03-27T17:26:53.606Z,6.00
2023-03-27T17:29:20.381Z,6.03
2023-03-27T17:31:47.284Z,5.93
2023-03-27T17:34:14.011Z,5.95
2023-03-27T17:36:47.222Z,5.89
2023-03-27T17:39:19.096Z,5.74
2023-03-27T17:41:45.852Z,5.64
2023-03-27T17:44:13.091Z,5.57
2023-03-27T17:46:39.725Z,5.42
2023-03-27T17:49:06.370Z,5.33
2023-03-27T17:51:34.538Z,5.21
2023-03-27T17:54:02.090Z,5.09
2023-03-27T17:56:29.015Z,5.00
2023-03-27T17:58:56.225Z,5.02
2023-03-27T18:01:24.376Z,5.09
2023-03-27T18:03:51.708Z,5.06
2023-03-27T18:06:20.755Z,5.08
2023-03-27T18:08:47.469Z,4.90
2023-03-27T18:11:15.963Z,4.88
2023-03-27T18:13:42.858Z,4.83
2023-03-27T18:16:13.152Z,4.66
2023-03-27T18:18:40.453Z,4.53
2023-03-27T18:21:07.351Z,4.40
2023-03-27T18:23:35.279Z,4.17
2023-03-27T18:26:08.500Z,3.91
2023-03-27T18:39:02.978Z,2.91
2023-03-27T18:52:11.715Z,2.16
2023-03-27T19:02:08.915Z,1.83
2023-03-27T19:05:00.236Z,1.58
2023-03-27T19:07:27.134Z,1.61
2023-03-27T19:09:53.711Z,1.57
2023-03-27T19:12:20.638Z,1.41
2023-03-27T19:14:47.293Z,1.44
2023-03-27T19:17:14.932Z,1.42
2023-03-27T19:19:43.389Z,1.44
2023-03-27T19:22:12.759Z,1.45
2023-03-27T19:24:40.457Z,1.38
2023-03-27T19:27:07.776Z,1.29
2023-03-27T19:29:50.887Z,1.26
2023-03-27T19:32:17.573Z,1.23
2023-03-27T19:34:44.744Z,1.20
2023-03-27T19:37:11.330Z,1.18
2023-03-27T19:39:38.073Z,1.11
2023-03-27T19:42:04.882Z,1.06
2023-03-27T19:44:31.916Z,1.07
2023-03-27T19:46:58.574Z,1.06
2023-03-27T19:49:25.349Z,1.04
2023-03-27T19:51:52.765Z,1.02
2023-03-27T19:54:19.313Z,1.00
2023-03-27T19:56:46.055Z,1.00
2023-03-27T19:59:20.768Z,0.96
2023-03-27T20:01:54.694Z,1.00
2023-03-27T20:04:21.376Z,0.90
2023-03-27T20:06:48.668Z,0.92
2023-03-27T20:09:15.488Z,0.91
2023-03-27T20:11:41.981Z,0.91
2023-03-27T20:14:11.691Z,0.89
2023-03-27T20:16:41.395Z,0.91
2023-03-27T20:19:09.438Z,0.84
2023-03-27T20:21:39.054Z,0.92
2023-03-27T20:24:09.780Z,0.88
2023-03-27T20:26:40.526Z,0.85
2023-03-27T20:29:12.901Z,0.78
2023-03-27T20:31:40.097Z,0.77
2023-03-27T20:34:07.929Z,0.73
2023-03-27T20:36:35.220Z,0.69
2023-03-27T20:39:04.697Z,0.58
2023-03-27T20:41:31.618Z,0.52
2023-03-27T20:43:58.959Z,0.47
2023-03-27T20:46:30.242Z,0.47
2023-03-27T20:48:57.354Z,0.53
2023-03-27T20:51:24.957Z,0.62
2023-03-27T20:53:56.257Z,0.72
2023-03-27T20:56:23.475Z,0.84
2023-03-27T20:58:51.445Z,0.90
2023-03-27T21:01:27.617Z,0.91
2023-03-27T21:03:58.197Z,0.88
2023-03-27T21:06:25.876Z,0.83
2023-03-27T21:08:52.442Z,0.73
2023-03-27T21:11:18.972Z,0.59
2023-03-27T21:13:45.783Z,0.49
2023-03-27T21:16:12.374Z,0.44
2023-03-27T21:18:39.145Z,0.39
2023-03-27T21:21:06.151Z,0.27
2023-03-27T21:23:33.087Z,0.26
2023-03-27T21:25:59.810Z,0.19
2023-03-27T21:28:26.520Z,0.17
2023-03-27T21:30:56.008Z,0.09
2023-03-27T21:33:22.614Z,0.15
2023-03-27T21:35:49.699Z,0.19
2023-03-27T21:38:17.998Z,0.28
2023-03-27T21:40:46.556Z,0.33
2023-03-27T21:43:13.808Z,0.31
2023-03-27T21:45:40.436Z,0.26
2023-03-27T21:48:07.414Z,0.25
2023-03-27T21:50:34.077Z,0.16
2023-03-27T21:53:00.708Z,0.05
2023-03-27T21:55:27.386Z,-0.04
2023-03-27T21:57:53.870Z,-0.11
2023-03-27T22:00:20.695Z,-0.14
2023-03-27T22:02:47.243Z,-0.10
2023-03-27T22:05:13.937Z,-0.02
2023-03-27T22:07:40.508Z,0.00
2023-03-27T22:10:07.528Z,0.04
2023-03-27T22:12:36.040Z,0.05
2023-03-27T22:15:07.043Z,0.06
2023-03-27T22:17:36.548Z,0.11
2023-03-27T22:20:05.009Z,0.20
2023-03-27T22:22:34.212Z,0.27
2023-03-27T22:25:01.111Z,0.26
2023-03-27T22:27:27.775Z,0.22
2023-03-27T22:29:54.378Z,0.19
2023-03-27T22:32:20.950Z,0.20
2023-03-27T22:34:49.149Z,0.21
2023-03-27T22:37:16.918Z,0.16
2023-03-27T22:39:43.613Z,0.15
2023-03-27T22:42:10.299Z,0.16
2023-03-27T22:44:36.901Z,0.11
2023-03-27T22:47:03.523Z,0.13
2023-03-27T22:49:30.438Z,0.14
2023-03-27T22:51:57.018Z,0.17
2023-03-27T22:54:23.691Z,0.13
2023-03-27T22:56:50.377Z,0.12
2023-03-27T22:59:19.990Z,0.03
2023-03-27T23:01:46.786Z,-0.09
2023-03-27T23:04:13.480Z,-0.16
2023-03-27T23:06:40.054Z,-0.20
2023-03-27T23:09:08.361Z,-0.30
2023-03-27T23:11:34.875Z,-0.35
2023-03-27T23:14:01.413Z,-0.39
2023-03-27T23:16:28.078Z,-0.38
2023-03-27T23:18:54.647Z,-0.36
2023-03-27T23:21:21.303Z,-0.33
2023-03-27T23:23:47.942Z,-0.29
2023-03-27T23:26:14.852Z,-0.31
2023-03-27T23:28:42.469Z,-0.33
2023-03-27T23:31:14.940Z,-0.28
2023-03-27T23:33:47.243Z,-0.24
2023-03-27T23:36:16.850Z,-0.26
2023-03-27T23:38:43.461Z,-0.29
2023-03-27T23:41:12.712Z,-0.30
2023-03-27T23:43:39.266Z,-0.39
2023-03-27T23:46:10.405Z,-0.43
2023-03-27T23:48:41.863Z,-0.43
2023-03-27T23:51:09.623Z,-0.42
2023-03-27T23:53:36.950Z,-0.41
2023-03-27T23:56:03.822Z,-0.41
2023-03-27T23:58:33.485Z,-0.37
